Westford, Pennsylvania
Current Conditions -  °F | °C
As of 7:53 PM on Tuesday 21 Oct 2014 (Local Time) from KGKJ Reporting Station
Overcast Overcast  
Wind Chill: 43°   Ceiling: 500
Heat Index: 47°   Visibility: 10mi
Dew Point: 44°   Wind: 8mph
Humidity: 90%   Direction: 10°N
Pressure: 29.99"   Gusts: NA
Location:  41.5078°N, 80.4555°W
Report Text: KGKJ 212353Z AUTO 01007KT 10SM OVC005 08/07 A2999 RMK AO2 RAB04E26 CIG 003V009 SLP157 P0001 60006 T00830067 10089 20083 53017 TSNO
Loading
Personal Weather Stations






























Interactive Weather Map
Tropical Storm Tracking
New forecast layout! Learn more

10-Day Weather Forecast

Advertisements
Track Severe Weather on mobile